createdAt,value
2023-04-22T00:00:36.146Z,0.00
2023-04-22T00:01:37.065Z,0.00
2023-04-22T00:02:36.140Z,0.00
2023-04-22T00:03:36.234Z,0.00
2023-04-22T00:04:36.284Z,0.00
2023-04-22T00:05:36.264Z,0.00
2023-04-22T00:06:36.061Z,0.00
2023-04-22T00:07:36.083Z,0.00
2023-04-22T00:08:35.974Z,0.00
2023-04-22T00:09:36.222Z,0.00
2023-04-22T00:10:35.985Z,0.00
2023-04-22T00:11:36.003Z,0.00
2023-04-22T00:12:35.994Z,0.00
2023-04-22T00:13:36.006Z,0.00
2023-04-22T00:14:35.913Z,0.00
2023-04-22T00:15:35.919Z,0.00
2023-04-22T00:16:35.984Z,0.00
2023-04-22T00:17:36.009Z,0.00
2023-04-22T00:18:36.861Z,0.00
2023-04-22T00:19:35.978Z,0.00
2023-04-22T00:20:35.858Z,0.00
2023-04-22T00:21:35.863Z,0.00
2023-04-22T00:22:35.874Z,0.00
2023-04-22T00:23:35.898Z,0.00
2023-04-22T00:24:35.888Z,0.00
2023-04-22T00:25:35.980Z,0.00
2023-04-22T00:26:35.885Z,0.00
2023-04-22T00:27:35.796Z,0.00
2023-04-22T00:28:35.807Z,0.00
2023-04-22T00:29:36.016Z,0.00
2023-04-22T00:30:35.918Z,0.00
2023-04-22T00:31:35.868Z,0.00
2023-04-22T00:32:35.755Z,0.00
2023-04-22T00:33:35.821Z,0.00
2023-04-22T00:34:35.831Z,0.00
2023-04-22T00:35:35.781Z,0.00
2023-04-22T00:36:35.849Z,0.00
2023-04-22T00:37:35.750Z,0.00
2023-04-22T00:38:35.754Z,0.00
2023-04-22T00:39:35.697Z,0.00
2023-04-22T00:40:35.698Z,0.00
2023-04-22T00:41:35.711Z,0.00
2023-04-22T00:42:35.778Z,0.00
2023-04-22T00:43:35.623Z,0.00
2023-04-22T00:44:35.694Z,0.00
2023-04-22T00:45:36.114Z,0.00
2023-04-22T00:46:36.528Z,0.00
2023-04-22T00:47:35.751Z,0.00
2023-04-22T00:48:35.666Z,0.00
2023-04-22T00:49:35.613Z,0.00
2023-04-22T00:50:35.571Z,0.00
2023-04-22T00:51:35.636Z,0.00
2023-04-22T00:52:35.641Z,0.00
2023-04-22T00:53:36.684Z,0.00
2023-04-22T00:54:35.614Z,0.00
2023-04-22T00:55:35.575Z,0.00
2023-04-22T00:56:35.474Z,0.00
2023-04-22T00:57:35.591Z,0.00
2023-04-22T00:58:35.484Z,0.00
2023-04-22T00:59:35.487Z,0.00
2023-04-22T01:00:35.525Z,0.00
2023-04-22T01:01:35.429Z,0.00
2023-04-22T01:02:35.452Z,0.00
2023-04-22T01:03:35.527Z,0.00
2023-04-22T01:04:35.420Z,0.00
2023-04-22T01:05:35.508Z,0.00
2023-04-22T01:06:35.470Z,0.00
2023-04-22T01:07:35.341Z,0.00
2023-04-22T01:08:35.349Z,0.00
2023-04-22T01:09:35.325Z,0.00
2023-04-22T01:10:35.384Z,0.00
2023-04-22T01:11:35.338Z,0.00
2023-04-22T01:12:35.348Z,0.00
2023-04-22T01:13:35.257Z,0.00
2023-04-22T01:14:35.266Z,0.00
2023-04-22T01:15:35.262Z,0.00
2023-04-22T01:16:35.337Z,0.00
2023-04-22T01:17:35.298Z,0.00
2023-04-22T01:18:35.394Z,0.00
2023-04-22T01:19:35.261Z,0.00
2023-04-22T01:20:35.196Z,0.00
2023-04-22T01:21:35.305Z,0.00
2023-04-22T01:22:36.134Z,0.00
2023-04-22T01:23:35.217Z,0.00
2023-04-22T01:24:35.294Z,0.00
2023-04-22T01:25:35.213Z,0.00
2023-04-22T01:26:35.262Z,0.00
2023-04-22T01:27:35.149Z,0.00
2023-04-22T01:28:35.262Z,0.00
2023-04-22T01:29:35.964Z,0.00
2023-04-22T01:30:35.131Z,0.00
2023-04-22T01:31:35.306Z,0.00
2023-04-22T01:32:35.094Z,0.00
2023-04-22T01:33:35.189Z,0.00
2023-04-22T01:34:35.184Z,0.00
2023-04-22T01:35:35.056Z,0.00
2023-04-22T01:36:35.207Z,0.00
2023-04-22T01:37:35.110Z,0.00
2023-04-22T01:38:35.110Z,0.00
2023-04-22T01:39:35.124Z,0.00
2023-04-22T01:40:36.665Z,0.00
2023-04-22T01:41:35.072Z,0.00
2023-04-22T01:42:35.042Z,0.00
2023-04-22T01:43:35.153Z,0.00
2023-04-22T01:44:35.047Z,0.00
2023-04-22T01:45:35.144Z,0.00
2023-04-22T01:46:35.153Z,0.00
2023-04-22T01:47:35.148Z,0.00
2023-04-22T01:48:34.869Z,0.00
2023-04-22T01:49:34.985Z,0.00
2023-04-22T01:50:34.896Z,0.00
2023-04-22T01:51:34.911Z,0.00
2023-04-22T01:52:34.899Z,0.00
2023-04-22T01:53:35.013Z,0.00
2023-04-22T01:54:34.844Z,0.00
2023-04-22T01:55:34.916Z,0.00
2023-04-22T01:56:34.840Z,0.00
2023-04-22T01:57:34.931Z,0.00
2023-04-22T01:58:34.866Z,0.00
2023-04-22T01:59:34.933Z,0.00
2023-04-22T02:00:34.849Z,0.00
2023-04-22T02:01:34.874Z,0.00
2023-04-22T02:02:34.902Z,0.00
2023-04-22T02:03:34.877Z,0.00
2023-04-22T02:04:35.432Z,0.00
2023-04-22T02:05:34.800Z,0.00
2023-04-22T02:06:34.786Z,0.00
2023-04-22T02:07:34.680Z,0.00
2023-04-22T02:08:34.696Z,0.00
2023-04-22T02:09:34.658Z,0.00
2023-04-22T02:10:35.442Z,0.00
2023-04-22T02:11:35.640Z,0.00
2023-04-22T02:12:34.737Z,0.00
2023-04-22T02:13:34.631Z,0.00
2023-04-22T02:14:34.631Z,0.00
2023-04-22T02:15:34.649Z,0.00
2023-04-22T02:16:34.742Z,0.00
2023-04-22T02:17:34.608Z,0.00
2023-04-22T02:18:34.640Z,0.00
2023-04-22T02:19:34.699Z,0.00
2023-04-22T02:20:34.660Z,0.00
2023-04-22T02:21:34.591Z,0.00
2023-04-22T02:22:34.585Z,0.00
2023-04-22T02:23:34.596Z,0.00
2023-04-22T02:24:34.497Z,0.00
2023-04-22T02:25:34.503Z,0.00
2023-04-22T02:26:34.513Z,0.00
2023-04-22T02:27:34.614Z,0.00
2023-04-22T02:28:34.485Z,0.00
2023-04-22T02:29:34.487Z,0.00
2023-04-22T02:30:34.443Z,0.00
2023-04-22T02:31:34.488Z,0.00
2023-04-22T02:32:34.550Z,0.00
2023-04-22T02:33:34.453Z,0.00
2023-04-22T02:34:34.455Z,0.00
2023-04-22T02:35:34.477Z,0.00
2023-04-22T02:36:34.368Z,0.00
2023-04-22T02:37:34.384Z,0.00
2023-04-22T02:38:34.388Z,0.00
2023-04-22T02:39:34.489Z,0.00
2023-04-22T02:40:34.461Z,0.00
2023-04-22T02:41:34.307Z,0.00
2023-04-22T02:42:34.310Z,0.00
2023-04-22T02:43:34.419Z,0.00
2023-04-22T02:44:34.416Z,0.00
2023-04-22T02:45:34.410Z,0.00
2023-04-22T02:46:34.419Z,0.00
2023-04-22T02:47:34.306Z,0.00
2023-04-22T02:48:34.354Z,0.00
2023-04-22T02:49:34.350Z,0.00
2023-04-22T02:50:34.257Z,0.00
2023-04-22T02:51:34.282Z,0.00
2023-04-22T02:52:34.480Z,0.00
2023-04-22T02:53:34.177Z,0.00
2023-04-22T02:54:34.189Z,0.00
2023-04-22T02:55:34.209Z,0.00
2023-04-22T02:56:34.209Z,0.00
2023-04-22T02:57:34.208Z,0.00
2023-04-22T02:58:34.223Z,0.00
2023-04-22T02:59:34.224Z,0.00
2023-04-22T03:00:34.328Z,0.00
2023-04-22T03:01:34.438Z,0.00
2023-04-22T03:02:34.316Z,0.00
2023-04-22T03:03:34.337Z,0.00
2023-04-22T03:04:34.352Z,0.00
2023-04-22T03:05:34.093Z,0.00
2023-04-22T03:06:34.168Z,0.00
2023-04-22T03:07:34.383Z,0.00
2023-04-22T03:08:35.005Z,0.00
2023-04-22T03:09:34.071Z,0.00
2023-04-22T03:10:34.540Z,0.00
2023-04-22T03:11:34.098Z,0.00
2023-04-22T03:12:34.103Z,0.00
2023-04-22T03:13:34.108Z,0.00
2023-04-22T03:14:34.121Z,0.00
2023-04-22T03:15:34.114Z,0.00
2023-04-22T03:16:34.060Z,0.00
2023-04-22T03:17:34.057Z,0.00
2023-04-22T03:18:34.022Z,0.00
2023-04-22T03:19:33.952Z,0.00
2023-04-22T03:20:33.954Z,0.00
2023-04-22T03:21:34.012Z,0.00
2023-04-22T03:22:33.936Z,0.00
2023-04-22T03:23:33.906Z,0.00
2023-04-22T03:24:33.991Z,0.00
2023-04-22T03:25:33.983Z,0.00
2023-04-22T03:26:33.898Z,0.00
2023-04-22T03:27:33.994Z,0.00
2023-04-22T03:28:33.851Z,0.00
2023-04-22T03:29:35.183Z,0.00
2023-04-22T03:30:33.821Z,0.00
2023-04-22T03:31:33.893Z,0.00
2023-04-22T03:32:33.936Z,0.00
2023-04-22T03:33:33.760Z,0.00
2023-04-22T03:34:35.208Z,0.00
2023-04-22T03:35:33.788Z,0.00
2023-04-22T03:36:33.807Z,0.00
2023-04-22T03:37:33.871Z,0.00
2023-04-22T03:38:33.912Z,0.00
2023-04-22T03:39:33.729Z,0.00
2023-04-22T03:40:34.431Z,0.00
2023-04-22T03:41:33.745Z,0.00
2023-04-22T03:42:33.627Z,0.00
2023-04-22T03:43:33.694Z,0.00
2023-04-22T03:44:34.160Z,0.00
2023-04-22T03:45:33.988Z,0.00
2023-04-22T03:46:33.822Z,0.00
2023-04-22T03:47:33.732Z,0.00
2023-04-22T03:48:33.678Z,0.00
2023-04-22T03:49:33.590Z,0.00
2023-04-22T03:50:33.700Z,0.00
2023-04-22T03:51:33.685Z,0.00
2023-04-22T03:52:33.494Z,0.00
2023-04-22T03:53:33.557Z,0.00
2023-04-22T03:54:34.243Z,0.00
2023-04-22T03:55:34.538Z,0.00
2023-04-22T03:56:34.032Z,0.00
2023-04-22T03:57:34.533Z,0.00
2023-04-22T03:58:33.439Z,0.00
2023-04-22T03:59:33.520Z,0.00
2023-04-22T04:00:33.508Z,0.00
2023-04-22T04:01:33.436Z,0.00
2023-04-22T04:02:33.618Z,0.00
2023-04-22T04:03:33.704Z,0.00
2023-04-22T04:04:33.580Z,0.00
2023-04-22T04:05:33.524Z,0.00
2023-04-22T04:06:33.530Z,0.00
2023-04-22T04:07:33.459Z,0.00
2023-04-22T04:08:33.399Z,0.00
2023-04-22T04:09:33.300Z,0.00
2023-04-22T04:10:33.404Z,0.00
2023-04-22T04:11:33.319Z,0.00
2023-04-22T04:12:33.321Z,0.00
2023-04-22T04:13:33.944Z,0.00
2023-04-22T04:14:33.314Z,0.00
2023-04-22T04:15:33.397Z,0.00
2023-04-22T04:16:33.342Z,0.00
2023-04-22T04:17:33.353Z,0.00
2023-04-22T04:18:33.264Z,0.00
2023-04-22T04:19:33.253Z,0.00
2023-04-22T04:20:33.279Z,0.00
2023-04-22T04:21:33.176Z,0.00
2023-04-22T04:22:33.266Z,0.00
2023-04-22T04:23:33.184Z,0.00
2023-04-22T04:24:33.189Z,0.00
2023-04-22T04:25:33.278Z,0.00
2023-04-22T04:26:33.516Z,0.00
2023-04-22T04:27:33.169Z,0.00
2023-04-22T04:28:33.146Z,0.00
2023-04-22T04:29:33.124Z,0.00
2023-04-22T04:30:33.639Z,0.00
2023-04-22T04:31:33.149Z,0.00
2023-04-22T04:32:33.467Z,0.00
2023-04-22T04:33:33.057Z,0.00
2023-04-22T04:34:33.050Z,0.00
2023-04-22T04:35:33.066Z,0.00
2023-04-22T04:36:33.069Z,0.00
2023-04-22T04:37:33.064Z,0.00
2023-04-22T04:38:35.004Z,0.00
2023-04-22T04:39:33.080Z,0.00
2023-04-22T04:40:33.098Z,0.00
2023-04-22T04:41:33.103Z,0.00
2023-04-22T04:42:33.004Z,0.00
2023-04-22T04:43:33.009Z,0.00
2023-04-22T04:44:33.004Z,0.00
2023-04-22T04:45:32.910Z,0.00
2023-04-22T04:46:32.931Z,0.00
2023-04-22T04:47:32.941Z,0.00
2023-04-22T04:48:33.665Z,0.00
2023-04-22T04:49:32.953Z,0.00
2023-04-22T04:50:33.063Z,0.00
2023-04-22T04:51:32.846Z,0.00
2023-04-22T04:52:32.844Z,0.00
2023-04-22T04:53:32.862Z,0.00
2023-04-22T04:54:32.864Z,0.00
2023-04-22T04:55:32.899Z,0.00
2023-04-22T04:56:33.687Z,0.00
2023-04-22T04:57:32.783Z,0.00
2023-04-22T04:58:32.786Z,0.00
2023-04-22T04:59:32.796Z,0.00
2023-04-22T05:00:32.799Z,0.00
2023-04-22T05:01:32.889Z,0.00
2023-04-22T05:02:32.916Z,0.00
2023-04-22T05:03:32.898Z,0.00
2023-04-22T05:04:32.913Z,0.00
2023-04-22T05:05:32.839Z,0.00
2023-04-22T05:06:32.759Z,0.00
2023-04-22T05:07:32.735Z,0.00
2023-04-22T05:08:32.730Z,0.00
2023-04-22T05:09:32.665Z,0.00
2023-04-22T05:10:32.661Z,0.00
2023-04-22T05:11:32.675Z,0.00
2023-04-22T05:12:32.684Z,0.00
2023-04-22T05:13:32.693Z,0.00
2023-04-22T05:14:32.698Z,0.00
2023-04-22T05:15:32.601Z,0.00
2023-04-22T05:16:32.776Z,0.00
2023-04-22T05:17:32.776Z,0.00
2023-04-22T05:18:32.626Z,0.00
2023-04-22T05:19:32.701Z,0.00
2023-04-22T05:20:35.341Z,0.00
2023-04-22T05:21:32.538Z,0.00
2023-04-22T05:22:32.549Z,0.00
2023-04-22T05:23:32.577Z,0.00
2023-04-22T05:24:32.565Z,0.00
2023-04-22T05:25:33.062Z,0.00
2023-04-22T05:26:32.493Z,0.00
2023-04-22T05:27:32.572Z,0.00
2023-04-22T05:28:32.590Z,0.00
2023-04-22T05:29:32.481Z,0.00
2023-04-22T05:30:32.474Z,0.00
2023-04-22T05:31:32.698Z,0.00
2023-04-22T05:32:32.551Z,0.00
2023-04-22T05:33:32.511Z,0.00
2023-04-22T05:34:32.505Z,0.00
2023-04-22T05:35:32.531Z,0.00
2023-04-22T05:36:32.435Z,0.00
2023-04-22T05:37:32.446Z,0.00
2023-04-22T05:38:32.349Z,0.00
2023-04-22T05:39:32.395Z,0.00
2023-04-22T05:40:32.372Z,0.00
2023-04-22T05:41:32.362Z,0.00
2023-04-22T05:42:32.373Z,0.00
2023-04-22T05:43:32.399Z,0.00
2023-04-22T05:44:32.283Z,0.00
2023-04-22T05:45:32.325Z,0.00
2023-04-22T05:46:32.340Z,0.00
2023-04-22T05:47:32.390Z,0.00
2023-04-22T05:48:32.311Z,0.00
2023-04-22T05:49:32.219Z,0.00
2023-04-22T05:50:32.222Z,0.00
2023-04-22T05:51:32.243Z,0.00
2023-04-22T05:52:32.324Z,0.00
2023-04-22T05:53:32.253Z,0.00
2023-04-22T05:54:32.251Z,0.00
2023-04-22T05:55:32.172Z,0.00
2023-04-22T05:56:32.196Z,0.00
2023-04-22T05:57:32.197Z,0.00
2023-04-22T05:58:32.180Z,0.00
2023-04-22T05:59:32.190Z,0.00
2023-04-22T06:00:32.496Z,0.00
2023-04-22T06:01:32.183Z,0.00
2023-04-22T06:02:32.324Z,0.00
2023-04-22T06:03:32.338Z,0.00
2023-04-22T06:04:35.356Z,0.00
2023-04-22T06:05:32.197Z,0.00
2023-04-22T06:06:33.026Z,0.00
2023-04-22T06:07:32.105Z,0.00
2023-04-22T06:08:32.118Z,0.00
2023-04-22T06:09:32.026Z,0.00
2023-04-22T06:10:32.109Z,0.00
2023-04-22T06:11:32.040Z,0.00
2023-04-22T06:12:32.453Z,0.00
2023-04-22T06:13:32.059Z,0.00
2023-04-22T06:14:31.960Z,0.00
2023-04-22T06:15:32.004Z,0.00
2023-04-22T06:16:31.991Z,0.00
2023-04-22T06:17:32.001Z,0.00
2023-04-22T06:18:31.986Z,0.00
2023-04-22T06:19:31.897Z,0.00
2023-04-22T06:20:31.905Z,0.00
2023-04-22T06:21:31.913Z,0.00
2023-04-22T06:22:31.905Z,0.00
2023-04-22T06:23:32.328Z,0.00
2023-04-22T06:24:32.541Z,0.00
2023-04-22T06:25:31.939Z,0.00
2023-04-22T06:26:31.857Z,0.00
2023-04-22T06:27:31.832Z,0.00
2023-04-22T06:28:31.811Z,0.00
2023-04-22T06:29:31.809Z,0.00
2023-04-22T06:30:32.018Z,0.00
2023-04-22T06:31:31.822Z,0.00
2023-04-22T06:32:31.815Z,0.00
2023-04-22T06:33:32.651Z,0.00
2023-04-22T06:34:31.863Z,0.00
2023-04-22T06:35:32.048Z,0.00
2023-04-22T06:36:31.777Z,0.00
2023-04-22T06:37:31.678Z,0.00
2023-04-22T06:38:31.685Z,0.00
2023-04-22T06:39:31.684Z,0.00
2023-04-22T06:40:31.677Z,0.00
2023-04-22T06:41:32.009Z,0.00
2023-04-22T06:42:31.714Z,0.00
2023-04-22T06:43:31.618Z,0.00
2023-04-22T06:44:31.619Z,0.00
2023-04-22T06:45:31.705Z,0.00
2023-04-22T06:46:31.741Z,0.00
2023-04-22T06:47:32.052Z,0.00
2023-04-22T06:48:32.246Z,0.00
2023-04-22T06:49:32.474Z,0.00
2023-04-22T06:50:31.561Z,0.00
2023-04-22T06:51:31.597Z,0.00
2023-04-22T06:52:31.576Z,0.00
2023-04-22T06:53:32.191Z,0.00
2023-04-22T06:54:31.584Z,0.00
2023-04-22T06:55:32.516Z,0.00
2023-04-22T06:56:31.505Z,0.00
2023-04-22T06:57:31.500Z,0.00
2023-04-22T06:58:31.477Z,0.00
2023-04-22T06:59:31.517Z,0.00
2023-04-22T07:00:31.525Z,0.00
2023-04-22T07:01:31.562Z,0.00
2023-04-22T07:02:31.526Z,0.00
2023-04-22T07:03:31.595Z,0.00
2023-04-22T07:04:31.492Z,0.00
2023-04-22T07:05:31.453Z,0.00
2023-04-22T07:06:31.565Z,0.00
2023-04-22T07:07:31.367Z,0.00
2023-04-22T07:08:31.446Z,0.00
2023-04-22T07:09:31.368Z,0.00
2023-04-22T07:10:31.381Z,0.00
2023-04-22T07:11:31.377Z,0.00
2023-04-22T07:12:31.503Z,0.00
2023-04-22T07:13:31.306Z,0.00
2023-04-22T07:14:31.310Z,0.00
2023-04-22T07:15:31.286Z,0.00
2023-04-22T07:16:31.380Z,0.00
2023-04-22T07:17:31.315Z,0.00
2023-04-22T07:18:31.302Z,0.00
2023-04-22T07:19:32.565Z,0.00
2023-04-22T07:20:31.325Z,0.00
2023-04-22T07:21:31.223Z,0.00
2023-04-22T07:22:31.248Z,0.00
2023-04-22T07:23:31.342Z,0.00
2023-04-22T07:24:32.195Z,0.00
2023-04-22T07:25:31.281Z,0.00
2023-04-22T07:26:31.197Z,0.00
2023-04-22T07:27:31.196Z,0.00
2023-04-22T07:28:31.197Z,0.00
2023-04-22T07:29:31.212Z,0.00
2023-04-22T07:30:31.207Z,0.00
2023-04-22T07:31:31.239Z,0.00
2023-04-22T07:32:31.258Z,0.00
2023-04-22T07:33:31.125Z,0.00
2023-04-22T07:34:31.161Z,0.00
2023-04-22T07:35:31.142Z,0.00
2023-04-22T07:36:31.222Z,0.00
2023-04-22T07:37:31.126Z,0.00
2023-04-22T07:38:31.136Z,0.00
2023-04-22T07:39:31.081Z,0.00
2023-04-22T07:40:31.086Z,0.00
2023-04-22T07:41:31.090Z,0.00
2023-04-22T07:42:31.155Z,0.00
2023-04-22T07:43:31.093Z,0.00
2023-04-22T07:44:31.103Z,0.00
2023-04-22T07:45:31.080Z,0.00
2023-04-22T07:46:31.117Z,0.00
2023-04-22T07:47:31.122Z,0.00
2023-04-22T07:48:31.095Z,0.00
2023-04-22T07:49:31.043Z,0.00
2023-04-22T07:50:31.664Z,0.00
2023-04-22T07:51:30.956Z,0.00
2023-04-22T07:52:31.017Z,0.00
2023-04-22T07:53:31.059Z,0.00
2023-04-22T07:54:31.042Z,0.00
2023-04-22T07:55:30.972Z,0.00
2023-04-22T07:56:30.946Z,0.00
2023-04-22T07:57:30.977Z,0.00
2023-04-22T07:58:30.997Z,0.00
2023-04-22T07:59:30.892Z,0.00
2023-04-22T08:00:30.949Z,0.00
2023-04-22T08:01:30.983Z,0.00
2023-04-22T08:02:31.040Z,0.00
2023-04-22T08:03:31.196Z,0.00
2023-04-22T08:04:30.962Z,0.00
2023-04-22T08:05:30.923Z,0.00
2023-04-22T08:06:31.165Z,0.00
2023-04-22T08:07:33.438Z,0.00
2023-04-22T08:08:31.081Z,0.00
2023-04-22T08:09:30.846Z,0.00
2023-04-22T08:10:30.790Z,0.00
2023-04-22T08:11:30.789Z,0.00
2023-04-22T08:12:30.858Z,0.00
2023-04-22T08:13:30.762Z,0.00
2023-04-22T08:14:30.772Z,0.00
2023-04-22T08:15:32.005Z,0.00
2023-04-22T08:16:30.779Z,0.00
2023-04-22T08:17:30.829Z,0.00
2023-04-22T08:18:30.841Z,0.00
2023-04-22T08:19:30.701Z,0.00
2023-04-22T08:20:31.056Z,0.00
2023-04-22T08:21:30.653Z,0.00
2023-04-22T08:22:30.662Z,0.00
2023-04-22T08:23:30.644Z,0.00
2023-04-22T08:24:30.641Z,0.00
2023-04-22T08:25:30.681Z,0.00
2023-04-22T08:26:30.772Z,0.00
2023-04-22T08:27:31.684Z,0.00
2023-04-22T08:28:30.559Z,0.00
2023-04-22T08:29:30.672Z,0.00
2023-04-22T08:30:30.611Z,0.00
2023-04-22T08:31:30.582Z,0.00
2023-04-22T08:32:30.651Z,0.00
2023-04-22T08:33:30.769Z,0.00
2023-04-22T08:34:30.537Z,0.00
2023-04-22T08:35:30.541Z,0.00
2023-04-22T08:36:30.595Z,0.00
2023-04-22T08:37:30.520Z,0.00
2023-04-22T08:38:30.563Z,0.00
2023-04-22T08:39:30.468Z,0.00
2023-04-22T08:40:31.087Z,0.00
2023-04-22T08:41:30.585Z,0.00
2023-04-22T08:42:30.435Z,0.00
2023-04-22T08:43:30.445Z,0.00
2023-04-22T08:44:33.570Z,0.00
2023-04-22T08:45:30.484Z,0.00
2023-04-22T08:46:30.493Z,0.00
2023-04-22T08:47:30.628Z,0.00
2023-04-22T08:48:30.410Z,0.00
2023-04-22T08:49:30.322Z,0.00
2023-04-22T08:50:30.634Z,0.00
2023-04-22T08:51:30.305Z,0.00
2023-04-22T08:52:30.348Z,0.00
2023-04-22T08:53:30.354Z,0.00
2023-04-22T08:54:31.381Z,0.00
2023-04-22T08:55:30.327Z,0.00
2023-04-22T08:56:30.269Z,0.00
2023-04-22T08:57:30.247Z,0.00
2023-04-22T08:58:30.294Z,0.00
2023-04-22T08:59:30.277Z,0.00
2023-04-22T09:00:30.199Z,0.00
2023-04-22T09:01:30.314Z,0.00
2023-04-22T09:02:30.321Z,0.00
2023-04-22T09:03:30.308Z,0.00
2023-04-22T09:04:30.364Z,0.00
2023-04-22T09:05:30.121Z,0.00
2023-04-22T09:06:30.161Z,0.00
2023-04-22T09:07:30.222Z,0.00
2023-04-22T09:08:30.239Z,0.00
2023-04-22T09:09:30.253Z,0.00
2023-04-22T09:10:31.390Z,0.00
2023-04-22T09:11:30.364Z,0.00
2023-04-22T09:12:30.191Z,0.00
2023-04-22T09:13:30.580Z,0.00
2023-04-22T09:14:30.195Z,0.00
2023-04-22T09:15:30.081Z,0.00
2023-04-22T09:16:30.140Z,0.00
2023-04-22T09:17:30.939Z,0.00
2023-04-22T09:18:30.115Z,0.00
2023-04-22T09:19:30.625Z,0.00
2023-04-22T09:20:30.133Z,0.00
2023-04-22T09:21:30.150Z,0.00
2023-04-22T09:22:30.130Z,0.00
2023-04-22T09:23:30.653Z,0.00
2023-04-22T09:24:30.039Z,0.00
2023-04-22T09:25:30.562Z,0.00
2023-04-22T09:26:29.962Z,0.00
2023-04-22T09:27:29.955Z,0.00
2023-04-22T09:28:30.187Z,0.00
2023-04-22T09:29:31.019Z,0.00
2023-04-22T09:30:30.302Z,0.00
2023-04-22T09:31:30.808Z,0.00
2023-04-22T09:32:30.070Z,0.00
2023-04-22T09:33:29.978Z,0.00
2023-04-22T09:34:29.898Z,0.00
2023-04-22T09:35:29.917Z,0.00
2023-04-22T09:36:30.722Z,0.00
2023-04-22T09:37:39.320Z,0.00
2023-04-22T09:38:29.776Z,0.00
2023-04-22T09:39:29.833Z,0.00
2023-04-22T09:40:29.843Z,0.00
2023-04-22T09:41:29.778Z,0.00
2023-04-22T09:42:29.860Z,0.00
2023-04-22T09:43:29.837Z,0.00
2023-04-22T09:44:29.757Z,0.00
2023-04-22T09:45:29.729Z,0.00
2023-04-22T09:46:29.725Z,0.00
2023-04-22T09:47:29.825Z,0.00
2023-04-22T09:48:29.730Z,0.00
2023-04-22T09:49:29.696Z,0.00
2023-04-22T09:50:29.597Z,0.00
2023-04-22T09:51:29.634Z,0.00
2023-04-22T09:52:29.666Z,0.00
2023-04-22T09:53:29.670Z,0.00
2023-04-22T09:54:29.610Z,0.00
2023-04-22T09:55:29.732Z,0.00
2023-04-22T09:56:29.563Z,0.00
2023-04-22T09:57:29.637Z,0.00
2023-04-22T09:58:29.549Z,0.00
2023-04-22T09:59:29.647Z,0.00
2023-04-22T10:00:29.591Z,0.00
2023-04-22T10:01:31.874Z,0.00
2023-04-22T10:02:29.686Z,0.00
2023-04-22T10:03:30.155Z,0.00
2023-04-22T10:04:29.830Z,0.00
2023-04-22T10:05:29.667Z,0.00
2023-04-22T10:06:29.498Z,0.00
2023-04-22T10:07:29.564Z,0.00
2023-04-22T10:08:29.434Z,0.00
2023-04-22T10:09:29.978Z,0.00
2023-04-22T10:10:29.509Z,0.00
2023-04-22T10:11:29.533Z,0.00
2023-04-22T10:12:35.223Z,0.00
2023-04-22T10:13:29.613Z,0.00
2023-04-22T10:14:29.347Z,0.00
2023-04-22T10:15:30.488Z,0.00
2023-04-22T10:16:31.761Z,0.00
2023-04-22T10:17:30.836Z,0.00
2023-04-22T10:18:29.457Z,0.00
2023-04-22T10:19:29.407Z,0.00
2023-04-22T10:20:29.350Z,0.00
2023-04-22T10:21:29.318Z,0.00
2023-04-22T10:22:30.101Z,0.00
2023-04-22T10:23:29.288Z,0.00
2023-04-22T10:24:29.351Z,0.00
2023-04-22T10:25:29.350Z,5.62
2023-04-22T10:26:29.803Z,5.62
2023-04-22T10:27:29.969Z,5.62
2023-04-22T10:28:29.301Z,5.62
2023-04-22T10:29:29.166Z,5.62
2023-04-22T10:30:29.309Z,0.00
2023-04-22T10:31:29.244Z,0.00
2023-04-22T10:32:29.249Z,0.00
2023-04-22T10:33:29.226Z,0.00
2023-04-22T10:34:29.385Z,0.00
2023-04-22T10:35:29.385Z,0.00
2023-04-22T10:36:29.204Z,5.62
2023-04-22T10:37:29.153Z,5.62
2023-04-22T10:38:29.869Z,5.62
2023-04-22T10:39:29.172Z,5.62
2023-04-22T10:40:29.690Z,5.62
2023-04-22T10:41:29.096Z,5.62
2023-04-22T10:42:29.083Z,5.62
2023-04-22T10:43:29.050Z,5.62
2023-04-22T10:44:29.011Z,5.62
2023-04-22T10:45:29.271Z,5.62
2023-04-22T10:46:29.132Z,5.62
2023-04-22T10:47:29.342Z,5.62
2023-04-22T10:48:29.027Z,11.25
2023-04-22T10:49:29.181Z,16.88
2023-04-22T10:50:29.793Z,5.62
2023-04-22T10:51:28.925Z,16.88
2023-04-22T10:52:28.933Z,16.88
2023-04-22T10:53:28.943Z,5.62
2023-04-22T10:54:31.996Z,11.25
2023-04-22T10:55:29.001Z,11.25
2023-04-22T10:56:28.962Z,5.62
2023-04-22T10:57:28.886Z,11.25
2023-04-22T10:58:29.518Z,5.62
2023-04-22T10:59:29.835Z,5.62
2023-04-22T11:00:38.155Z,5.62
2023-04-22T11:01:28.975Z,16.88
2023-04-22T11:02:29.033Z,5.62
2023-04-22T11:03:29.236Z,11.25
2023-04-22T11:04:29.082Z,5.62
2023-04-22T11:05:28.848Z,11.25
2023-04-22T11:06:29.157Z,16.88
2023-04-22T11:07:28.756Z,11.25
2023-04-22T11:08:28.840Z,22.50
2023-04-22T11:09:28.973Z,5.62
2023-04-22T11:10:28.755Z,11.25
2023-04-22T11:11:28.704Z,5.62
2023-04-22T11:12:28.793Z,5.62
2023-04-22T11:13:28.688Z,5.62
2023-04-22T11:14:28.681Z,11.25
2023-04-22T11:15:28.682Z,5.62
2023-04-22T11:16:28.739Z,16.88
2023-04-22T11:17:28.715Z,22.50
2023-04-22T11:18:28.710Z,11.25
2023-04-22T11:19:28.605Z,5.62
2023-04-22T11:20:28.638Z,22.50
2023-04-22T11:21:28.642Z,22.50
2023-04-22T11:22:29.337Z,22.50
2023-04-22T11:23:28.665Z,5.62
2023-04-22T11:24:28.664Z,5.62
2023-04-22T11:25:28.550Z,22.50
2023-04-22T11:26:28.578Z,11.25
2023-04-22T11:27:28.592Z,11.25
2023-04-22T11:28:28.568Z,16.88
2023-04-22T11:29:28.598Z,16.88
2023-04-22T11:30:28.604Z,16.88
2023-04-22T11:31:28.509Z,16.88
2023-04-22T11:32:28.494Z,22.50
2023-04-22T11:33:28.523Z,11.25
2023-04-22T11:34:31.071Z,16.88
2023-04-22T11:35:28.419Z,11.25
2023-04-22T11:36:28.430Z,11.25
2023-04-22T11:37:28.551Z,11.25
2023-04-22T11:38:28.523Z,16.88
2023-04-22T11:39:28.455Z,11.25
2023-04-22T11:40:31.641Z,22.50
2023-04-22T11:41:28.481Z,22.50
2023-04-22T11:42:29.286Z,11.25
2023-04-22T11:43:28.381Z,22.50
2023-04-22T11:44:28.365Z,11.25
2023-04-22T11:45:28.541Z,28.12
2023-04-22T11:46:28.492Z,11.25
2023-04-22T11:47:29.629Z,11.25
2023-04-22T11:48:30.910Z,11.25
2023-04-22T11:49:28.311Z,28.12
2023-04-22T11:50:28.433Z,33.75
2023-04-22T11:51:28.521Z,16.88
2023-04-22T11:52:28.432Z,33.75
2023-04-22T11:53:28.253Z,16.88
2023-04-22T11:54:28.253Z,11.25
2023-04-22T11:55:28.263Z,28.12
2023-04-22T11:56:28.272Z,28.12
2023-04-22T11:57:28.283Z,33.75
2023-04-22T11:58:28.479Z,16.88
2023-04-22T11:59:29.222Z,28.12
2023-04-22T12:00:28.310Z,28.12
2023-04-22T12:01:28.380Z,16.88
2023-04-22T12:02:28.490Z,11.25
2023-04-22T12:03:28.519Z,11.25
2023-04-22T12:04:29.128Z,16.88
2023-04-22T12:05:28.258Z,28.12
2023-04-22T12:06:28.220Z,28.12
2023-04-22T12:07:28.120Z,28.12
2023-04-22T12:08:28.224Z,28.12
2023-04-22T12:09:28.762Z,28.12
2023-04-22T12:10:28.145Z,22.50
2023-04-22T12:11:28.570Z,33.75
2023-04-22T12:12:28.050Z,28.12
2023-04-22T12:13:28.064Z,22.50
2023-04-22T12:14:28.079Z,28.12
2023-04-22T12:15:28.052Z,28.12
2023-04-22T12:16:28.132Z,28.12
2023-04-22T12:17:28.132Z,28.12
2023-04-22T12:18:27.973Z,28.12
2023-04-22T12:19:27.995Z,28.12
2023-04-22T12:20:28.003Z,28.12
2023-04-22T12:21:28.088Z,33.75
2023-04-22T12:22:28.021Z,28.12
2023-04-22T12:23:27.920Z,28.12
2023-04-22T12:24:27.915Z,28.12
2023-04-22T12:25:27.932Z,28.12
2023-04-22T12:26:28.047Z,28.12
2023-04-22T12:27:27.943Z,28.12
2023-04-22T12:28:27.952Z,33.75
2023-04-22T12:29:28.783Z,33.75
2023-04-22T12:30:27.866Z,33.75
2023-04-22T12:31:28.326Z,33.75
2023-04-22T12:32:28.802Z,33.75
2023-04-22T12:33:28.848Z,33.75
2023-04-22T12:34:27.899Z,33.75
2023-04-22T12:35:27.926Z,33.75
2023-04-22T12:36:27.810Z,33.75
2023-04-22T12:37:27.819Z,33.75
2023-04-22T12:38:27.827Z,33.75
2023-04-22T12:39:27.834Z,33.75
2023-04-22T12:40:27.862Z,33.75
2023-04-22T12:41:27.843Z,33.75
2023-04-22T12:42:27.751Z,33.75
2023-04-22T12:43:27.767Z,33.75
2023-04-22T12:44:27.970Z,33.75
2023-04-22T12:45:27.668Z,33.75
2023-04-22T12:46:28.305Z,28.12
2023-04-22T12:47:27.825Z,33.75
2023-04-22T12:48:27.687Z,33.75
2023-04-22T12:49:27.704Z,33.75
2023-04-22T12:50:28.639Z,33.75
2023-04-22T12:51:27.910Z,33.75
2023-04-22T12:52:27.705Z,39.38
2023-04-22T12:53:28.345Z,33.75
2023-04-22T12:54:27.624Z,33.75
2023-04-22T12:55:27.724Z,39.38
2023-04-22T12:56:27.730Z,39.38
2023-04-22T12:57:27.624Z,16.88
2023-04-22T12:58:27.570Z,33.75
2023-04-22T12:59:27.642Z,28.12
2023-04-22T13:00:27.961Z,39.38
2023-04-22T13:01:27.725Z,39.38
2023-04-22T13:02:27.754Z,22.50
2023-04-22T13:03:27.866Z,39.38
2023-04-22T13:04:27.763Z,39.38
2023-04-22T13:05:27.596Z,39.38
2023-04-22T13:06:27.593Z,39.38
2023-04-22T13:07:28.114Z,39.38
2023-04-22T13:08:27.610Z,39.38
2023-04-22T13:09:27.610Z,39.38
2023-04-22T13:10:28.341Z,39.38
2023-04-22T13:11:27.516Z,39.38
2023-04-22T13:12:27.432Z,39.38
2023-04-22T13:13:27.635Z,39.38
2023-04-22T13:14:27.651Z,39.38